createdAt,value
2022-11-25T00:01:52.233Z,5.40
2022-11-25T00:04:21.460Z,6.15
2022-11-25T00:06:50.900Z,5.50
2022-11-25T00:09:20.105Z,5.00
2022-11-25T00:11:49.480Z,6.10
2022-11-25T00:14:18.699Z,5.47
2022-11-25T00:16:48.948Z,5.40
2022-11-25T00:19:18.775Z,5.08
2022-11-25T00:21:48.334Z,5.58
2022-11-25T00:24:17.824Z,5.80
2022-11-25T00:26:47.356Z,5.90
2022-11-25T00:29:16.569Z,5.35
2022-11-25T00:31:45.976Z,5.58
2022-11-25T00:34:16.210Z,5.03
2022-11-25T00:36:45.545Z,5.33
2022-11-25T00:39:17.163Z,5.12
2022-11-25T00:42:05.180Z,5.22
2022-11-25T00:44:38.620Z,5.50
2022-11-25T00:47:20.054Z,5.10
2022-11-25T00:49:51.358Z,5.05
2022-11-25T00:52:23.813Z,4.90
2022-11-25T00:54:53.543Z,5.05
2022-11-25T00:57:24.867Z,6.00
2022-11-25T00:59:54.684Z,5.50
2022-11-25T01:02:24.578Z,5.53
2022-11-25T01:04:53.988Z,5.22
2022-11-25T01:07:23.453Z,6.03
2022-11-25T01:09:52.793Z,5.78
2022-11-25T01:12:22.118Z,5.90
2022-11-25T01:14:53.026Z,6.00
2022-11-25T01:17:22.359Z,6.17
2022-11-25T01:19:51.854Z,5.80
2022-11-25T01:22:21.812Z,5.95
2022-11-25T01:24:51.047Z,6.00
2022-11-25T01:27:21.640Z,5.62
2022-11-25T01:29:51.074Z,6.28
2022-11-25T01:32:20.279Z,6.95
2022-11-25T01:34:49.605Z,6.22
2022-11-25T01:37:18.822Z,6.20
2022-11-25T01:39:48.064Z,6.83
2022-11-25T01:42:18.802Z,6.33
2022-11-25T01:44:51.311Z,6.72
2022-11-25T01:47:24.401Z,6.70
2022-11-25T01:50:05.025Z,7.42
2022-11-25T01:52:39.698Z,7.67
2022-11-25T01:55:11.555Z,7.95
2022-11-25T01:57:47.362Z,7.60
2022-11-25T02:00:17.380Z,8.88
2022-11-25T02:02:47.205Z,8.15
2022-11-25T02:05:19.267Z,7.35
2022-11-25T02:07:51.496Z,7.22
2022-11-25T02:10:26.818Z,6.25
2022-11-25T02:12:56.454Z,5.75
2022-11-25T02:15:25.724Z,5.35
2022-11-25T02:17:55.173Z,4.00
2022-11-25T02:20:25.285Z,3.95
2022-11-25T02:23:01.583Z,4.37
2022-11-25T02:25:35.671Z,3.90
2022-11-25T02:28:12.574Z,3.62
2022-11-25T02:30:42.165Z,4.05
2022-11-25T02:33:11.765Z,3.17
2022-11-25T02:35:48.990Z,2.80
2022-11-25T02:38:28.938Z,2.87
2022-11-25T02:41:16.295Z,2.60
2022-11-25T02:43:47.549Z,2.50
2022-11-25T02:46:22.576Z,2.60
2022-11-25T02:49:08.291Z,2.52
2022-11-25T02:51:26.009Z,2.25
2022-11-25T02:53:56.725Z,3.40
2022-11-25T02:56:29.464Z,2.85
2022-11-25T02:59:00.155Z,2.00
2022-11-25T03:01:31.742Z,2.35
2022-11-25T03:04:01.227Z,2.50
2022-11-25T03:06:31.477Z,2.75
2022-11-25T03:09:00.765Z,2.25
2022-11-25T03:11:31.807Z,2.33
2022-11-25T03:14:01.393Z,2.62
2022-11-25T03:16:30.735Z,2.75
2022-11-25T03:19:00.028Z,2.47
2022-11-25T03:21:29.266Z,2.42
2022-11-25T03:23:58.847Z,2.05
2022-11-25T03:26:28.194Z,2.20
2022-11-25T03:28:58.074Z,2.05
2022-11-25T03:31:27.517Z,2.08
2022-11-25T03:33:57.393Z,2.00
2022-11-25T03:36:26.830Z,2.35
2022-11-25T03:38:56.162Z,2.37
2022-11-25T03:41:25.399Z,3.12
2022-11-25T03:43:54.926Z,2.52
2022-11-25T03:46:24.815Z,3.10
2022-11-25T03:48:55.918Z,2.70
2022-11-25T03:51:25.965Z,2.17
2022-11-25T03:53:55.889Z,1.92
2022-11-25T03:56:25.483Z,1.92
2022-11-25T03:58:54.881Z,1.70
2022-11-25T04:01:24.576Z,1.92
2022-11-25T04:03:54.222Z,1.70
2022-11-25T04:06:24.124Z,1.60
2022-11-25T04:08:54.283Z,1.47
2022-11-25T04:11:25.569Z,1.60
2022-11-25T04:13:55.447Z,1.75
2022-11-25T04:16:26.402Z,1.70
2022-11-25T04:18:56.387Z,1.67
2022-11-25T04:21:25.728Z,1.45
2022-11-25T04:23:55.253Z,1.62
2022-11-25T04:26:24.608Z,1.42
2022-11-25T04:28:53.892Z,1.40
2022-11-25T04:31:23.536Z,1.52
2022-11-25T04:33:52.987Z,1.50
2022-11-25T04:36:23.533Z,1.60
2022-11-25T04:38:53.512Z,1.52
2022-11-25T04:41:24.235Z,1.40
2022-11-25T04:43:53.650Z,1.72
2022-11-25T04:46:26.390Z,1.55
2022-11-25T04:48:56.644Z,1.95
2022-11-25T04:51:26.055Z,2.08
2022-11-25T04:53:57.076Z,2.35
2022-11-25T04:56:26.560Z,1.87
2022-11-25T04:59:14.463Z,1.90
2022-11-25T05:01:45.550Z,2.22
2022-11-25T05:04:29.126Z,2.30
2022-11-25T05:06:58.475Z,2.27
2022-11-25T05:09:28.015Z,2.40
2022-11-25T05:12:05.978Z,2.30
2022-11-25T05:14:36.138Z,3.00
2022-11-25T05:17:06.745Z,2.80
2022-11-25T05:19:36.820Z,2.70
2022-11-25T05:22:06.743Z,3.60
2022-11-25T05:24:36.652Z,3.60
2022-11-25T05:27:06.791Z,3.10
2022-11-25T05:29:36.250Z,3.50
2022-11-25T05:32:06.477Z,3.72
2022-11-25T05:34:36.075Z,3.55
2022-11-25T05:37:07.611Z,3.60
2022-11-25T05:39:37.745Z,3.92
2022-11-25T05:42:11.532Z,3.47
2022-11-25T05:44:41.387Z,3.30
2022-11-25T05:47:10.849Z,3.60
2022-11-25T05:49:41.030Z,3.52
2022-11-25T05:52:10.331Z,3.30
2022-11-25T05:54:41.263Z,3.92
2022-11-25T05:57:10.654Z,4.17
2022-11-25T05:59:44.871Z,3.90
2022-11-25T06:02:15.905Z,4.08
2022-11-25T06:04:45.395Z,3.80
2022-11-25T06:07:14.676Z,4.50
2022-11-25T06:09:44.179Z,3.65
2022-11-25T06:12:13.965Z,3.87
2022-11-25T06:14:44.931Z,4.05
2022-11-25T06:17:14.235Z,4.47
2022-11-25T06:19:48.496Z,4.53
2022-11-25T06:22:17.913Z,4.95
2022-11-25T06:24:52.942Z,5.17
2022-11-25T06:27:18.674Z,5.00
2022-11-25T06:29:48.052Z,5.50
2022-11-25T06:32:17.468Z,4.53
2022-11-25T06:35:00.361Z,5.03
2022-11-25T06:37:37.666Z,5.35
2022-11-25T06:40:09.162Z,5.87
2022-11-25T06:42:39.350Z,5.28
2022-11-25T06:45:09.609Z,5.30
2022-11-25T06:47:39.088Z,5.40
2022-11-25T06:50:08.950Z,5.72
2022-11-25T06:52:38.825Z,5.50
2022-11-25T06:55:08.650Z,5.45
2022-11-25T06:57:37.948Z,6.00
2022-11-25T07:00:08.428Z,5.60
2022-11-25T07:02:41.915Z,5.85
2022-11-25T07:05:09.050Z,5.42
2022-11-25T07:07:38.511Z,5.72
2022-11-25T07:10:08.969Z,5.90
2022-11-25T07:12:38.231Z,6.30
2022-11-25T07:15:08.394Z,5.60
2022-11-25T07:17:37.845Z,6.10
2022-11-25T07:20:08.591Z,6.08
2022-11-25T07:22:37.833Z,5.80
2022-11-25T07:25:09.459Z,6.80
2022-11-25T07:27:38.849Z,6.22
2022-11-25T07:32:40.032Z,6.80
2022-11-25T07:35:09.780Z,6.85
2022-11-25T07:37:39.227Z,7.28
2022-11-25T07:40:09.493Z,6.90
2022-11-25T07:42:38.966Z,7.22
2022-11-25T07:45:10.543Z,7.53
2022-11-25T07:47:41.473Z,7.90
2022-11-25T07:50:11.038Z,7.92
2022-11-25T07:52:41.180Z,7.67
2022-11-25T07:55:10.884Z,7.92
2022-11-25T07:57:40.213Z,7.90
2022-11-25T08:00:10.681Z,7.83
2022-11-25T08:02:42.706Z,7.80
2022-11-25T08:05:12.222Z,7.45
2022-11-25T08:07:41.513Z,7.17
2022-11-25T08:10:11.630Z,6.75
2022-11-25T08:12:40.876Z,6.42
2022-11-25T08:15:10.810Z,6.58
2022-11-25T08:17:40.009Z,5.90
2022-11-25T08:20:10.203Z,6.05
2022-11-25T08:22:39.555Z,6.00
2022-11-25T08:25:09.319Z,5.65
2022-11-25T08:27:38.615Z,5.87
2022-11-25T08:30:08.915Z,5.58
2022-11-25T08:32:39.346Z,6.08
2022-11-25T08:35:09.246Z,5.60
2022-11-25T08:37:38.520Z,5.85
2022-11-25T08:40:08.974Z,5.70
2022-11-25T08:42:39.504Z,6.33
2022-11-25T08:45:09.882Z,6.25
2022-11-25T08:47:39.178Z,6.33
2022-11-25T08:50:10.789Z,7.00
2022-11-25T08:52:40.204Z,6.25
2022-11-25T08:55:09.815Z,6.87
2022-11-25T08:57:39.284Z,6.35
2022-11-25T09:00:09.806Z,7.30
2022-11-25T09:02:39.063Z,7.15
2022-11-25T09:05:08.556Z,7.03
2022-11-25T09:07:38.023Z,7.15
2022-11-25T09:10:10.368Z,6.92
2022-11-25T09:12:39.628Z,6.62
2022-11-25T09:15:10.077Z,7.10
2022-11-25T09:17:39.372Z,6.97
2022-11-25T09:20:09.293Z,6.55
2022-11-25T09:22:38.515Z,7.40
2022-11-25T09:25:08.700Z,6.42
2022-11-25T09:27:37.922Z,7.03
2022-11-25T09:30:08.252Z,6.10
2022-11-25T09:32:37.499Z,6.25
2022-11-25T09:35:07.153Z,5.95
2022-11-25T09:37:36.647Z,5.95
2022-11-25T09:40:07.972Z,5.47
2022-11-25T09:43:14.383Z,5.25
2022-11-25T09:46:19.827Z,5.62
2022-11-25T09:49:13.927Z,5.15
2022-11-25T09:52:01.484Z,5.15
2022-11-25T09:54:43.079Z,4.80
2022-11-25T09:57:23.104Z,4.70
2022-11-25T10:00:04.460Z,4.87
2022-11-25T10:02:41.027Z,4.20
2022-11-25T10:05:44.136Z,4.22
2022-11-25T10:08:22.501Z,3.92
2022-11-25T10:11:03.647Z,4.25
2022-11-25T10:13:44.938Z,4.08
2022-11-25T10:16:17.425Z,3.70
2022-11-25T10:18:49.903Z,3.75
2022-11-25T10:21:19.128Z,3.72
2022-11-25T10:23:48.444Z,3.62
2022-11-25T10:26:20.822Z,3.60
2022-11-25T10:28:56.657Z,3.35
2022-11-25T10:31:35.270Z,3.27
2022-11-25T10:34:07.811Z,3.60
2022-11-25T10:36:39.343Z,3.12
2022-11-25T10:39:29.962Z,3.65
2022-11-25T10:42:07.201Z,2.83
2022-11-25T10:44:38.945Z,2.87
2022-11-25T10:47:20.375Z,2.80
2022-11-25T10:50:09.752Z,2.85
2022-11-25T10:52:47.853Z,2.80
2022-11-25T10:55:20.248Z,2.50
2022-11-25T10:57:49.449Z,2.67
2022-11-25T11:00:37.804Z,3.12
2022-11-25T11:03:19.126Z,3.10
2022-11-25T11:05:51.302Z,3.20
2022-11-25T11:08:25.977Z,2.65
2022-11-25T11:11:18.273Z,2.98
2022-11-25T11:13:48.650Z,2.55
2022-11-25T11:16:29.671Z,2.67
2022-11-25T11:18:59.263Z,2.58
2022-11-25T11:21:34.807Z,2.70
2022-11-25T11:24:06.921Z,3.10
2022-11-25T11:26:37.265Z,2.90
2022-11-25T11:29:13.976Z,2.92
2022-11-25T11:31:43.134Z,2.80
2022-11-25T11:34:21.636Z,3.00
2022-11-25T11:37:17.303Z,3.33
2022-11-25T11:40:06.444Z,3.08
2022-11-25T11:42:50.546Z,3.08
2022-11-25T11:45:48.152Z,3.00
2022-11-25T11:48:42.211Z,3.40
2022-11-25T11:51:14.794Z,3.10
2022-11-25T11:56:36.904Z,3.15
2022-11-25T11:59:23.952Z,3.22
2022-11-25T12:02:08.671Z,3.30
2022-11-25T12:04:44.200Z,3.47
2022-11-25T12:07:23.020Z,3.42
2022-11-25T12:09:55.549Z,3.70
2022-11-25T12:12:28.151Z,3.25
2022-11-25T12:17:30.979Z,3.98
2022-11-25T12:22:45.366Z,3.72
2022-11-25T12:25:29.749Z,3.58
2022-11-25T12:28:11.334Z,3.87
2022-11-25T12:31:05.572Z,4.10
2022-11-25T12:33:52.913Z,3.52
2022-11-25T12:36:39.217Z,3.83
2022-11-25T12:39:36.639Z,3.70
2022-11-25T12:42:09.231Z,4.28
2022-11-25T12:47:21.855Z,3.83
2022-11-25T12:49:53.205Z,4.20
2022-11-25T12:52:34.545Z,3.90
2022-11-25T12:55:19.319Z,3.92
2022-11-25T12:57:51.933Z,4.28
2022-11-25T13:03:15.684Z,3.85
2022-11-25T13:06:12.647Z,3.87
2022-11-25T13:08:48.106Z,3.30
2022-11-25T13:11:36.038Z,3.83
2022-11-25T13:14:18.012Z,4.42
2022-11-25T13:16:49.678Z,3.67
2022-11-25T13:19:20.155Z,3.95
2022-11-25T13:22:06.469Z,4.30
2022-11-25T13:24:43.269Z,3.87
2022-11-25T13:27:36.077Z,4.40
2022-11-25T13:30:07.457Z,3.72
2022-11-25T13:32:40.655Z,3.98
2022-11-25T13:35:33.299Z,4.35
2022-11-25T13:38:04.501Z,3.72
2022-11-25T13:40:37.462Z,3.92
2022-11-25T13:43:09.081Z,4.15
2022-11-25T13:45:40.609Z,4.70
2022-11-25T13:48:22.038Z,4.35
2022-11-25T13:51:10.833Z,4.12
2022-11-25T13:53:29.704Z,5.17
2022-11-25T13:56:23.504Z,4.80
2022-11-25T13:59:13.764Z,4.90
2022-11-25T14:01:49.119Z,4.67
2022-11-25T14:04:21.811Z,5.58
2022-11-25T14:09:37.873Z,4.42
2022-11-25T14:12:36.285Z,4.30
2022-11-25T14:15:30.043Z,4.47
2022-11-25T14:18:17.795Z,4.33
2022-11-25T14:20:52.772Z,4.53
2022-11-25T14:23:44.817Z,4.80
2022-11-25T14:26:42.189Z,5.08
2022-11-25T14:29:03.667Z,4.15
2022-11-25T14:31:38.937Z,4.47
2022-11-25T14:34:23.538Z,4.80
2022-11-25T14:37:08.115Z,4.50
2022-11-25T14:39:40.589Z,4.80
2022-11-25T14:42:13.696Z,4.70
2022-11-25T14:44:51.199Z,4.47
2022-11-25T14:47:28.682Z,4.10
2022-11-25T14:52:36.995Z,8.00
2022-11-25T14:55:07.711Z,10.95
2022-11-25T14:57:42.070Z,5.80
2022-11-25T15:00:15.550Z,8.50
2022-11-25T15:02:59.404Z,5.45
2022-11-25T15:05:34.403Z,7.08
2022-11-25T15:08:06.836Z,7.92
2022-11-25T15:10:45.702Z,7.12
2022-11-25T15:13:33.122Z,7.25
2022-11-25T15:16:14.199Z,6.15
2022-11-25T15:18:52.025Z,6.33
2022-11-25T15:21:24.169Z,5.97
2022-11-25T15:23:53.762Z,6.53
2022-11-25T15:26:29.093Z,5.40
2022-11-25T15:29:00.980Z,18.57
2022-11-25T15:31:33.550Z,16.93
2022-11-25T15:34:05.128Z,6.83
2022-11-25T15:36:35.877Z,17.73
2022-11-25T15:39:20.170Z,11.65
2022-11-25T15:41:51.268Z,8.15
2022-11-25T15:44:23.630Z,8.33
2022-11-25T15:47:15.584Z,10.58
2022-11-25T15:49:50.338Z,14.35
2022-11-25T15:52:21.204Z,11.10
2022-11-25T15:54:52.120Z,12.43
2022-11-25T15:57:24.136Z,10.20
2022-11-25T15:59:59.800Z,14.47
2022-11-25T16:02:45.177Z,9.98
2022-11-25T16:05:18.132Z,8.50
2022-11-25T16:07:56.648Z,10.93
2022-11-25T16:10:34.614Z,8.48
2022-11-25T16:13:29.449Z,9.63
2022-11-25T16:16:11.123Z,13.05
2022-11-25T16:18:58.717Z,10.55
2022-11-25T16:21:31.569Z,16.05
2022-11-25T16:24:19.346Z,8.85
2022-11-25T16:26:54.455Z,8.60
2022-11-25T16:29:29.601Z,8.45
2022-11-25T16:32:00.214Z,10.15
2022-11-25T16:34:30.741Z,10.72
2022-11-25T16:36:59.963Z,7.62
2022-11-25T16:39:29.348Z,8.58
2022-11-25T16:42:01.658Z,11.18
2022-11-25T16:44:32.032Z,18.32
2022-11-25T16:47:02.148Z,15.68
2022-11-25T16:49:32.020Z,13.85
2022-11-25T16:52:01.359Z,11.90
2022-11-25T16:54:31.599Z,8.18
2022-11-25T16:57:01.062Z,8.43
2022-11-25T16:59:33.782Z,9.73
2022-11-25T17:02:05.464Z,9.73
2022-11-25T17:04:34.910Z,9.63
2022-11-25T17:09:37.570Z,10.90
2022-11-25T17:12:08.728Z,14.80
2022-11-25T17:14:38.513Z,9.83
2022-11-25T17:17:08.939Z,9.73
2022-11-25T17:19:38.529Z,10.35
2022-11-25T17:22:26.162Z,8.70
2022-11-25T17:24:57.742Z,8.35
2022-11-25T17:27:30.493Z,9.03
2022-11-25T17:30:02.378Z,8.45
2022-11-25T17:32:33.124Z,7.55
2022-11-25T17:35:02.515Z,7.30
2022-11-25T17:37:32.702Z,7.80
2022-11-25T17:40:02.074Z,6.95
2022-11-25T17:42:34.345Z,7.75
2022-11-25T17:47:32.910Z,7.33
2022-11-25T17:50:02.677Z,8.20
2022-11-25T17:52:31.890Z,8.75
2022-11-25T17:55:01.445Z,8.33
2022-11-25T17:57:30.912Z,9.13
2022-11-25T18:00:00.633Z,9.85
2022-11-25T18:02:30.224Z,9.75
2022-11-25T18:04:59.956Z,9.38
2022-11-25T18:07:29.527Z,8.35
2022-11-25T18:09:58.838Z,7.67
2022-11-25T18:12:30.745Z,7.78
2022-11-25T18:15:01.979Z,8.53
2022-11-25T18:17:31.442Z,7.60
2022-11-25T18:20:00.882Z,7.72
2022-11-25T18:22:30.896Z,8.93
2022-11-25T18:25:03.162Z,7.87
2022-11-25T18:27:32.265Z,9.33
2022-11-25T18:30:02.634Z,10.23
2022-11-25T18:32:31.864Z,11.30
2022-11-25T18:35:01.186Z,11.70
2022-11-25T18:37:30.536Z,11.73
2022-11-25T18:39:59.886Z,13.18
2022-11-25T18:42:29.348Z,12.85
2022-11-25T18:44:58.992Z,14.58
2022-11-25T18:47:28.429Z,14.20
2022-11-25T18:49:57.907Z,12.33
2022-11-25T18:52:27.420Z,13.78
2022-11-25T18:54:56.722Z,12.35
2022-11-25T18:57:26.116Z,11.95
2022-11-25T19:00:17.265Z,12.13
2022-11-25T19:02:26.581Z,11.15
2022-11-25T19:04:55.920Z,12.68
2022-11-25T19:07:25.811Z,12.43
2022-11-25T19:09:55.414Z,10.98
2022-11-25T19:12:24.698Z,10.90
2022-11-25T19:14:55.755Z,10.30
2022-11-25T19:17:26.095Z,11.30
2022-11-25T19:19:55.766Z,11.05
2022-11-25T19:22:25.198Z,14.78
2022-11-25T19:24:56.110Z,14.10
2022-11-25T19:27:26.592Z,13.22
2022-11-25T19:29:56.292Z,23.75
2022-11-25T19:32:27.873Z,19.42
2022-11-25T19:35:00.649Z,24.53
2022-11-25T19:37:31.659Z,15.98
2022-11-25T19:40:02.896Z,23.98
2022-11-25T19:42:32.298Z,17.73
2022-11-25T19:45:03.595Z,23.35
2022-11-25T19:47:32.839Z,19.45
2022-11-25T19:50:03.112Z,19.02
2022-11-25T19:52:35.918Z,18.32
2022-11-25T19:55:16.948Z,22.77
2022-11-25T19:57:46.853Z,22.82
2022-11-25T20:00:17.737Z,26.75
2022-11-25T20:02:49.202Z,42.53
2022-11-25T20:05:36.225Z,39.40
2022-11-25T20:08:06.212Z,20.40
2022-11-25T20:10:35.489Z,14.85
2022-11-25T20:13:07.224Z,14.33
2022-11-25T20:15:37.744Z,15.33
2022-11-25T20:18:11.586Z,15.48
2022-11-25T20:20:41.415Z,14.28
2022-11-25T20:23:28.287Z,14.68
2022-11-25T20:25:57.652Z,14.03
2022-11-25T20:28:31.360Z,12.90
2022-11-25T20:31:00.983Z,12.20
2022-11-25T20:33:30.326Z,11.95
2022-11-25T20:36:02.899Z,12.60
2022-11-25T20:41:02.047Z,11.68
2022-11-25T20:43:33.674Z,12.70
2022-11-25T20:46:04.002Z,20.30
2022-11-25T20:48:35.325Z,15.23
2022-11-25T20:51:06.772Z,14.43
2022-11-25T20:53:36.717Z,14.98
2022-11-25T20:56:06.625Z,14.33
2022-11-25T20:58:37.394Z,14.15
2022-11-25T21:01:07.856Z,13.35
2022-11-25T21:03:37.606Z,14.53
2022-11-25T21:06:10.163Z,15.72
2022-11-25T21:11:08.223Z,12.60
2022-11-25T21:13:37.913Z,14.25
2022-11-25T21:16:07.467Z,12.95
2022-11-25T21:18:37.088Z,12.95
2022-11-25T21:21:09.488Z,12.88
2022-11-25T21:23:39.581Z,13.80
2022-11-25T21:26:14.460Z,13.10
2022-11-25T21:28:45.101Z,14.13
2022-11-25T21:31:22.690Z,14.10
2022-11-25T21:33:54.206Z,12.93
2022-11-25T21:36:26.905Z,13.43
2022-11-25T21:39:05.324Z,14.20
2022-11-25T21:41:35.538Z,13.88
2022-11-25T21:44:06.667Z,13.88
2022-11-25T21:46:36.145Z,14.83
2022-11-25T21:49:11.360Z,14.50
2022-11-25T21:51:41.223Z,15.18
2022-11-25T21:54:11.611Z,14.95
2022-11-25T21:56:41.129Z,14.75
2022-11-25T21:59:13.844Z,14.55
2022-11-25T22:01:43.269Z,14.28
2022-11-25T22:04:17.767Z,14.70
2022-11-25T22:06:48.112Z,14.53
2022-11-25T22:09:17.944Z,14.98
2022-11-25T22:11:52.993Z,15.20
2022-11-25T22:14:26.846Z,15.25
2022-11-25T22:16:57.685Z,15.00
2022-11-25T22:19:29.053Z,15.20
2022-11-25T22:22:00.056Z,15.85
2022-11-25T22:24:30.599Z,15.38
2022-11-25T22:26:59.937Z,15.10
2022-11-25T22:29:31.847Z,16.25
2022-11-25T22:32:01.291Z,15.93
2022-11-25T22:34:30.829Z,16.50
2022-11-25T22:37:00.140Z,15.70
2022-11-25T22:39:29.547Z,16.95
2022-11-25T22:42:05.097Z,16.02
2022-11-25T22:44:37.106Z,16.48
2022-11-25T22:47:07.602Z,16.90
2022-11-25T22:49:44.368Z,16.75
2022-11-25T22:52:25.322Z,16.93
2022-11-25T22:54:54.815Z,16.40
2022-11-25T22:57:24.175Z,17.52
2022-11-25T22:59:53.573Z,16.75
2022-11-25T23:02:28.834Z,17.10
2022-11-25T23:04:58.378Z,17.20
2022-11-25T23:07:27.711Z,17.50
2022-11-25T23:09:57.175Z,18.35
2022-11-25T23:12:26.410Z,18.50
2022-11-25T23:14:55.671Z,17.82
2022-11-25T23:17:26.830Z,18.48
2022-11-25T23:19:56.223Z,19.05
2022-11-25T23:22:25.451Z,19.40
2022-11-25T23:24:54.806Z,18.55
2022-11-25T23:27:24.070Z,19.73
2022-11-25T23:29:53.312Z,18.77
2022-11-25T23:32:22.559Z,19.15
2022-11-25T23:34:52.168Z,18.90
2022-11-25T23:37:21.466Z,19.12
2022-11-25T23:39:52.902Z,19.25
2022-11-25T23:42:22.145Z,20.30
2022-11-25T23:44:51.374Z,19.27
2022-11-25T23:47:23.127Z,19.35
2022-11-25T23:49:53.527Z,19.67
2022-11-25T23:52:27.210Z,21.15
2022-11-25T23:54:56.832Z,21.00
2022-11-25T23:57:29.304Z,23.83
2022-11-25T23:59:58.693Z,21.80
